createdAt,value
2022-12-29T00:01:24.697Z,102309.41
2022-12-29T00:05:24.066Z,102297.44
2022-12-29T00:09:23.526Z,102295.72
2022-12-29T00:13:39.247Z,102302.91
2022-12-29T00:17:40.404Z,102305.75
2022-12-29T00:21:56.167Z,102310.50
2022-12-29T00:26:12.177Z,102310.88
2022-12-29T00:30:30.299Z,102317.28
2022-12-29T00:34:47.317Z,102322.94
2022-12-29T00:39:06.570Z,102316.53
2022-12-29T00:43:22.257Z,102315.47
2022-12-29T00:47:21.569Z,102307.16
2022-12-29T00:51:23.174Z,102315.88
2022-12-29T00:55:22.582Z,102316.81
2022-12-29T00:59:22.406Z,102317.25
2022-12-29T01:03:21.870Z,102316.38
2022-12-29T01:07:23.549Z,102301.44
2022-12-29T01:11:22.932Z,102296.16
2022-12-29T01:15:22.304Z,102299.81
2022-12-29T01:19:21.861Z,102295.31
2022-12-29T01:23:23.625Z,102282.97
2022-12-29T01:27:22.467Z,102281.44
2022-12-29T01:31:22.056Z,102281.31
2022-12-29T01:35:21.570Z,102275.31
2022-12-29T01:39:22.714Z,102265.81
2022-12-29T01:43:22.157Z,102269.41
2022-12-29T01:47:25.867Z,102270.34
2022-12-29T01:51:26.424Z,102276.50
2022-12-29T01:55:28.505Z,102268.56
2022-12-29T01:59:30.929Z,102258.22
2022-12-29T02:03:33.220Z,102261.22
2022-12-29T02:07:32.634Z,102257.41
2022-12-29T02:11:34.591Z,102252.31
2022-12-29T02:15:46.097Z,102258.50
2022-12-29T02:20:04.600Z,102254.22
2022-12-29T02:24:24.198Z,102241.03
2022-12-29T02:28:42.231Z,102229.47
2022-12-29T02:32:48.115Z,102227.47
2022-12-29T02:36:50.062Z,102224.47
2022-12-29T02:40:51.317Z,102232.00
2022-12-29T02:44:56.177Z,102221.34
2022-12-29T02:49:02.900Z,102220.94
2022-12-29T02:53:03.250Z,102219.22
2022-12-29T02:57:02.044Z,102215.66
2022-12-29T03:01:07.859Z,102213.25
2022-12-29T03:05:21.909Z,102221.13
2022-12-29T03:09:24.038Z,102207.03
2022-12-29T03:13:43.755Z,102209.13
2022-12-29T03:17:48.760Z,102218.91
2022-12-29T03:22:09.254Z,102229.84
2022-12-29T03:26:11.743Z,102234.59
2022-12-29T03:30:12.946Z,102227.94
2022-12-29T03:34:12.715Z,102234.66
2022-12-29T03:38:18.501Z,102235.09
2022-12-29T03:42:22.046Z,102238.75
2022-12-29T03:46:21.334Z,102233.19
2022-12-29T03:50:20.633Z,102230.72
2022-12-29T03:54:22.741Z,102244.91
2022-12-29T03:58:21.922Z,102230.06
2022-12-29T04:02:22.318Z,102233.00
2022-12-29T04:06:21.703Z,102236.72
2022-12-29T04:10:23.706Z,102240.81
2022-12-29T04:14:23.297Z,102238.19
2022-12-29T04:18:24.182Z,102248.13
2022-12-29T04:22:23.446Z,102239.91
2022-12-29T04:26:24.810Z,102238.94
2022-12-29T04:30:25.494Z,102242.94
2022-12-29T04:34:24.612Z,102243.03
2022-12-29T04:38:24.531Z,102248.78
2022-12-29T04:42:25.581Z,102251.44
2022-12-29T04:46:25.155Z,102252.22
2022-12-29T04:50:24.639Z,102257.31
2022-12-29T04:54:24.072Z,102260.25
2022-12-29T04:58:30.186Z,102267.69
2022-12-29T05:02:30.877Z,102260.97
2022-12-29T05:06:30.785Z,102264.69
2022-12-29T05:10:29.790Z,102270.19
2022-12-29T05:14:33.450Z,102269.84
2022-12-29T05:18:32.193Z,102279.50
2022-12-29T05:22:31.749Z,102280.28
2022-12-29T05:26:30.635Z,102284.97
2022-12-29T05:30:32.488Z,102277.00
2022-12-29T05:34:31.373Z,102271.66
2022-12-29T05:38:30.704Z,102272.16
2022-12-29T05:42:29.508Z,102274.50
2022-12-29T05:46:31.104Z,102263.13
2022-12-29T05:50:29.938Z,102251.38
2022-12-29T05:54:32.585Z,102252.94
2022-12-29T05:58:33.317Z,102256.09
2022-12-29T06:02:34.736Z,102259.06
2022-12-29T06:06:34.991Z,102257.50
2022-12-29T06:10:34.915Z,102250.66
2022-12-29T06:14:34.389Z,102246.66
2022-12-29T06:18:35.799Z,102250.34
2022-12-29T06:22:35.295Z,102245.00
2022-12-29T06:26:34.093Z,102245.00
2022-12-29T06:30:33.678Z,102260.06
2022-12-29T06:34:35.390Z,102258.72
2022-12-29T06:38:35.931Z,102263.84
2022-12-29T06:42:35.342Z,102263.28
2022-12-29T06:46:35.641Z,102257.78
2022-12-29T06:50:37.615Z,102269.47
2022-12-29T06:54:45.497Z,102274.13
2022-12-29T06:58:46.126Z,102287.63
2022-12-29T07:02:53.692Z,102289.41
2022-12-29T07:07:03.463Z,102298.69
2022-12-29T08:02:13.679Z,102297.25
2022-12-29T08:06:14.340Z,102288.00
2022-12-29T08:10:56.985Z,102286.94
2022-12-29T08:24:38.061Z,102292.41
2022-12-29T08:28:41.918Z,102291.97
2022-12-29T08:32:42.047Z,102291.75
2022-12-29T08:36:43.673Z,102290.66
2022-12-29T08:40:43.758Z,102282.66
2022-12-29T08:44:43.274Z,102288.16
2022-12-29T08:48:44.884Z,102276.84
2022-12-29T08:52:46.293Z,102279.75
2022-12-29T08:56:48.565Z,102282.47
2022-12-29T09:00:48.631Z,102272.28
2022-12-29T09:04:49.059Z,102280.66
2022-12-29T09:08:56.531Z,102275.84
2022-12-29T09:12:56.103Z,102266.41
2022-12-29T09:17:11.483Z,102263.38
2022-12-29T09:21:13.553Z,102268.44
2022-12-29T09:25:26.771Z,102259.63
2022-12-29T09:29:33.271Z,102251.19
2022-12-29T09:33:36.102Z,102241.59
2022-12-29T09:37:36.068Z,102233.53
2022-12-29T09:41:40.375Z,102239.97
2022-12-29T09:45:43.700Z,102224.97
2022-12-29T09:49:46.781Z,102229.91
2022-12-29T09:53:48.553Z,102220.38
2022-12-29T09:57:52.488Z,102220.56
2022-12-29T10:01:57.507Z,102203.97
2022-12-29T10:06:02.214Z,102206.31
2022-12-29T10:10:13.047Z,102197.94
2022-12-29T10:14:33.527Z,102193.69
2022-12-29T10:18:49.054Z,102208.03
2022-12-29T10:22:57.079Z,102203.53
2022-12-29T10:26:58.939Z,102199.84
2022-12-29T10:31:08.880Z,102198.34
2022-12-29T10:35:14.567Z,102198.44
2022-12-29T10:39:34.183Z,102188.78
2022-12-29T10:49:28.028Z,102183.72
2022-12-29T10:54:56.398Z,102176.59
2022-12-29T11:10:41.593Z,102171.09
2022-12-29T13:06:55.839Z,102080.19
2022-12-29T13:11:46.497Z,102079.44
2022-12-29T13:16:14.276Z,102069.25
2022-12-29T13:20:55.371Z,102078.53
2022-12-29T13:53:58.341Z,102069.13
2022-12-29T14:12:08.549Z,102068.13
2022-12-29T14:20:08.348Z,102073.41
2022-12-29T14:25:20.925Z,102082.41
2022-12-29T14:30:08.505Z,102080.97
2022-12-29T14:37:34.484Z,102072.59
2022-12-29T14:57:48.406Z,102070.31
2022-12-29T15:19:07.902Z,102065.38
2022-12-29T15:23:17.047Z,102065.91
2022-12-29T15:27:27.640Z,102063.78
2022-12-29T15:31:34.633Z,102063.16
2022-12-29T15:35:46.397Z,102064.75
2022-12-29T15:40:16.070Z,102068.88
2022-12-29T15:44:25.415Z,102072.47
2022-12-29T15:53:44.739Z,102072.97
2022-12-29T15:58:37.216Z,102072.88
2022-12-29T16:03:48.139Z,102067.41
2022-12-29T16:09:28.242Z,102061.91
2022-12-29T16:13:27.425Z,102061.53
2022-12-29T16:17:50.127Z,102065.13
2022-12-29T17:08:03.455Z,102044.84
2022-12-29T17:11:27.766Z,102034.91
2022-12-29T17:16:42.443Z,102038.31
2022-12-29T17:21:12.951Z,102033.84
2022-12-29T17:32:12.739Z,102034.66
2022-12-29T17:51:22.264Z,102034.13
2022-12-29T18:13:23.049Z,102036.38
2022-12-29T18:30:02.182Z,102045.00
2022-12-29T18:45:50.718Z,102046.03
2022-12-29T18:51:26.409Z,102046.91
2022-12-29T19:00:39.607Z,102047.16
2022-12-29T19:09:53.212Z,102049.53
2022-12-29T19:13:52.630Z,102044.75
2022-12-29T19:18:16.527Z,102052.00
2022-12-29T19:22:22.446Z,102049.56
2022-12-29T19:26:29.932Z,102048.09
2022-12-29T19:30:29.871Z,102053.81
2022-12-29T19:34:29.797Z,102051.41
2022-12-29T19:38:36.837Z,102059.41
2022-12-29T19:42:52.927Z,102058.34
2022-12-29T19:46:54.671Z,102046.97
2022-12-29T19:50:56.892Z,102049.47
2022-12-29T19:54:56.327Z,102049.78
2022-12-29T19:59:04.221Z,102051.38
2022-12-29T20:03:11.596Z,102041.28
2022-12-29T20:07:17.399Z,102033.66
2022-12-29T20:11:18.243Z,102033.50
2022-12-29T20:15:23.283Z,102030.59
2022-12-29T20:19:25.024Z,102023.63
2022-12-29T20:23:24.968Z,102018.44
2022-12-29T20:27:24.267Z,102019.91
2022-12-29T20:31:40.009Z,102027.16
2022-12-29T20:35:41.614Z,102014.31
2022-12-29T20:39:45.026Z,102016.06
2022-12-29T20:43:45.148Z,102010.13
2022-12-29T20:47:48.202Z,102005.75
2022-12-29T20:52:05.787Z,102010.28
2022-12-29T20:56:08.414Z,102015.13
2022-12-29T21:00:20.684Z,102012.88
2022-12-29T21:04:27.114Z,102013.00
2022-12-29T21:08:27.713Z,102013.16
2022-12-29T21:12:39.366Z,102018.16
2022-12-29T21:16:38.639Z,102017.81
2022-12-29T21:20:40.801Z,102031.72
2022-12-29T21:24:40.246Z,102029.22
2022-12-29T21:28:41.292Z,102032.13
2022-12-29T21:37:21.597Z,102024.66
2022-12-29T21:41:23.357Z,102028.66
2022-12-29T21:45:32.236Z,102021.78
2022-12-29T21:49:31.767Z,102016.03
2022-12-29T21:53:41.200Z,102020.50
2022-12-29T21:57:56.581Z,102021.38
2022-12-29T22:02:15.823Z,102012.59
2022-12-29T22:06:32.307Z,102010.59
2022-12-29T22:10:50.045Z,102004.78
2022-12-29T22:14:50.066Z,102000.19
2022-12-29T22:18:49.429Z,102008.06
2022-12-29T22:22:51.279Z,102001.69
2022-12-29T22:26:56.347Z,101989.59
2022-12-29T22:30:56.653Z,101984.84
2022-12-29T22:34:56.517Z,101977.50
2022-12-29T22:38:56.641Z,101973.69
2022-12-29T22:42:58.151Z,101970.53
2022-12-29T22:46:57.991Z,101968.56
2022-12-29T22:50:57.229Z,101970.81
2022-12-29T22:55:01.705Z,101964.88
2022-12-29T22:59:06.209Z,101961.47
2022-12-29T23:03:06.334Z,101957.75
2022-12-29T23:07:07.886Z,101949.53
2022-12-29T23:11:09.332Z,101947.88
2022-12-29T23:15:11.851Z,101946.34
2022-12-29T23:19:12.574Z,101944.84
2022-12-29T23:23:11.752Z,101959.31
2022-12-29T23:27:11.543Z,101953.53
2022-12-29T23:31:13.094Z,101958.75
2022-12-29T23:35:13.055Z,101948.00
2022-12-29T23:39:12.704Z,101950.13
2022-12-29T23:43:12.528Z,101956.41
2022-12-29T23:47:13.933Z,101948.53
2022-12-29T23:51:13.972Z,101945.41
2022-12-29T23:55:13.034Z,101955.53
2022-12-29T23:59:12.828Z,101944.69
